sensor_id;sensor_type;location;lat;lon;timestamp;P1;durP1;ratioP1;P2;durP2;ratioP2
75928;SDS011;64606;44.062;2.986;2023-12-20T00:01:50;3.80;;;3.38;;
75928;SDS011;64606;44.062;2.986;2023-12-20T00:04:16;4.10;;;3.70;;
75928;SDS011;64606;44.062;2.986;2023-12-20T00:06:42;3.45;;;3.15;;
75928;SDS011;64606;44.062;2.986;2023-12-20T00:09:09;3.17;;;2.97;;
75928;SDS011;64606;44.062;2.986;2023-12-20T00:11:35;3.22;;;2.92;;
75928;SDS011;64606;44.062;2.986;2023-12-20T00:14:01;3.40;;;2.90;;
75928;SDS011;64606;44.062;2.986;2023-12-20T00:16:27;2.72;;;2.53;;
75928;SDS011;64606;44.062;2.986;2023-12-20T00:18:53;2.95;;;2.67;;
75928;SDS011;64606;44.062;2.986;2023-12-20T00:21:19;3.13;;;2.83;;
75928;SDS011;64606;44.062;2.986;2023-12-20T00:23:45;2.75;;;2.55;;
75928;SDS011;64606;44.062;2.986;2023-12-20T00:26:11;3.05;;;2.50;;
75928;SDS011;64606;44.062;2.986;2023-12-20T00:28:38;2.65;;;2.45;;
75928;SDS011;64606;44.062;2.986;2023-12-20T00:31:04;2.55;;;2.35;;
75928;SDS011;64606;44.062;2.986;2023-12-20T00:33:30;2.67;;;2.47;;
75928;SDS011;64606;44.062;2.986;2023-12-20T00:35:56;2.75;;;2.55;;
75928;SDS011;64606;44.062;2.986;2023-12-20T00:38:22;2.65;;;2.45;;
75928;SDS011;64606;44.062;2.986;2023-12-20T00:40:48;2.50;;;2.30;;
75928;SDS011;64606;44.062;2.986;2023-12-20T00:43:15;2.40;;;2.20;;
75928;SDS011;64606;44.062;2.986;2023-12-20T00:45:41;2.50;;;2.30;;
75928;SDS011;64606;44.062;2.986;2023-12-20T00:48:07;2.33;;;2.13;;
75928;SDS011;64606;44.062;2.986;2023-12-20T00:50:33;2.30;;;2.10;;
75928;SDS011;64606;44.062;2.986;2023-12-20T00:52:59;2.35;;;2.15;;
75928;SDS011;64606;44.062;2.986;2023-12-20T00:55:25;2.10;;;1.85;;
75928;SDS011;64606;44.062;2.986;2023-12-20T00:57:51;2.08;;;1.98;;
75928;SDS011;64606;44.062;2.986;2023-12-20T01:00:18;2.08;;;1.98;;
75928;SDS011;64606;44.062;2.986;2023-12-20T01:02:44;2.58;;;1.88;;
75928;SDS011;64606;44.062;2.986;2023-12-20T01:05:14;2.10;;;2.00;;
75928;SDS011;64606;44.062;2.986;2023-12-20T01:07:40;2.20;;;2.00;;
75928;SDS011;64606;44.062;2.986;2023-12-20T01:10:06;2.22;;;2.10;;
75928;SDS011;64606;44.062;2.986;2023-12-20T01:12:32;2.08;;;1.98;;
75928;SDS011;64606;44.062;2.986;2023-12-20T01:14:59;2.08;;;1.90;;
75928;SDS011;64606;44.062;2.986;2023-12-20T01:17:25;2.00;;;1.90;;
75928;SDS011;64606;44.062;2.986;2023-12-20T01:19:51;2.17;;;2.08;;
75928;SDS011;64606;44.062;2.986;2023-12-20T01:22:17;2.28;;;2.10;;
75928;SDS011;64606;44.062;2.986;2023-12-20T01:24:44;2.10;;;2.00;;
75928;SDS011;64606;44.062;2.986;2023-12-20T01:27:10;2.03;;;1.90;;
75928;SDS011;64606;44.062;2.986;2023-12-20T01:29:36;2.40;;;2.20;;
75928;SDS011;64606;44.062;2.986;2023-12-20T01:32:02;3.00;;;2.80;;
75928;SDS011;64606;44.062;2.986;2023-12-20T01:34:28;3.40;;;3.10;;
75928;SDS011;64606;44.062;2.986;2023-12-20T01:36:54;3.28;;;2.97;;
75928;SDS011;64606;44.062;2.986;2023-12-20T01:39:20;3.78;;;3.40;;
75928;SDS011;64606;44.062;2.986;2023-12-20T01:41:46;3.33;;;3.03;;
75928;SDS011;64606;44.062;2.986;2023-12-20T01:44:13;2.95;;;2.75;;
75928;SDS011;64606;44.062;2.986;2023-12-20T01:46:39;3.70;;;3.30;;
75928;SDS011;64606;44.062;2.986;2023-12-20T01:49:06;4.60;;;4.13;;
75928;SDS011;64606;44.062;2.986;2023-12-20T01:51:32;5.10;;;4.60;;
75928;SDS011;64606;44.062;2.986;2023-12-20T01:53:59;6.07;;;5.47;;
75928;SDS011;64606;44.062;2.986;2023-12-20T01:56:25;6.93;;;6.22;;
75928;SDS011;64606;44.062;2.986;2023-12-20T01:58:52;6.30;;;5.70;;
75928;SDS011;64606;44.062;2.986;2023-12-20T02:01:19;6.93;;;5.75;;
75928;SDS011;64606;44.062;2.986;2023-12-20T02:03:45;6.20;;;5.40;;
75928;SDS011;64606;44.062;2.986;2023-12-20T02:06:11;5.90;;;5.30;;
75928;SDS011;64606;44.062;2.986;2023-12-20T02:08:37;5.38;;;4.85;;
75928;SDS011;64606;44.062;2.986;2023-12-20T02:11:03;5.25;;;4.75;;
75928;SDS011;64606;44.062;2.986;2023-12-20T02:13:30;5.00;;;4.50;;
75928;SDS011;64606;44.062;2.986;2023-12-20T02:15:57;4.95;;;4.40;;
75928;SDS011;64606;44.062;2.986;2023-12-20T02:18:23;4.50;;;4.10;;
75928;SDS011;64606;44.062;2.986;2023-12-20T02:20:49;4.45;;;4.05;;
75928;SDS011;64606;44.062;2.986;2023-12-20T02:23:15;5.13;;;4.63;;
75928;SDS011;64606;44.062;2.986;2023-12-20T02:25:41;5.28;;;4.45;;
75928;SDS011;64606;44.062;2.986;2023-12-20T02:28:07;5.05;;;4.55;;
75928;SDS011;64606;44.062;2.986;2023-12-20T02:30:34;5.63;;;5.03;;
75928;SDS011;64606;44.062;2.986;2023-12-20T02:33:00;5.82;;;5.10;;
75928;SDS011;64606;44.062;2.986;2023-12-20T02:35:27;5.80;;;5.20;;
75928;SDS011;64606;44.062;2.986;2023-12-20T02:37:53;6.50;;;5.30;;
75928;SDS011;64606;44.062;2.986;2023-12-20T02:40:19;5.80;;;5.05;;
75928;SDS011;64606;44.062;2.986;2023-12-20T02:42:45;6.03;;;5.28;;
75928;SDS011;64606;44.062;2.986;2023-12-20T02:45:11;5.70;;;5.10;;
75928;SDS011;64606;44.062;2.986;2023-12-20T02:47:37;5.53;;;5.03;;
75928;SDS011;64606;44.062;2.986;2023-12-20T02:50:03;5.07;;;4.55;;
75928;SDS011;64606;44.062;2.986;2023-12-20T02:52:29;4.57;;;4.18;;
75928;SDS011;64606;44.062;2.986;2023-12-20T02:54:55;4.32;;;3.92;;
75928;SDS011;64606;44.062;2.986;2023-12-20T02:57:22;5.10;;;4.43;;
75928;SDS011;64606;44.062;2.986;2023-12-20T02:59:48;4.40;;;4.00;;
75928;SDS011;64606;44.062;2.986;2023-12-20T03:02:14;4.38;;;3.97;;
75928;SDS011;64606;44.062;2.986;2023-12-20T03:04:40;4.80;;;4.13;;
75928;SDS011;64606;44.062;2.986;2023-12-20T03:07:06;4.07;;;3.67;;
75928;SDS011;64606;44.062;2.986;2023-12-20T03:09:32;3.67;;;3.38;;
75928;SDS011;64606;44.062;2.986;2023-12-20T03:11:58;3.78;;;3.47;;
75928;SDS011;64606;44.062;2.986;2023-12-20T03:14:24;4.38;;;3.65;;
75928;SDS011;64606;44.062;2.986;2023-12-20T03:16:50;4.50;;;3.58;;
75928;SDS011;64606;44.062;2.986;2023-12-20T03:19:17;3.97;;;3.60;;
75928;SDS011;64606;44.062;2.986;2023-12-20T03:21:46;4.03;;;3.45;;
75928;SDS011;64606;44.062;2.986;2023-12-20T03:24:13;4.00;;;3.60;;
75928;SDS011;64606;44.062;2.986;2023-12-20T03:26:39;3.63;;;3.33;;
75928;SDS011;64606;44.062;2.986;2023-12-20T03:29:05;4.57;;;3.50;;
75928;SDS011;64606;44.062;2.986;2023-12-20T03:31:31;3.63;;;3.33;;
75928;SDS011;64606;44.062;2.986;2023-12-20T03:33:57;4.10;;;3.70;;
75928;SDS011;64606;44.062;2.986;2023-12-20T03:36:23;4.10;;;3.70;;
75928;SDS011;64606;44.062;2.986;2023-12-20T03:38:49;3.58;;;3.25;;
75928;SDS011;64606;44.062;2.986;2023-12-20T03:41:15;3.55;;;3.25;;
75928;SDS011;64606;44.062;2.986;2023-12-20T03:43:41;3.75;;;3.45;;
75928;SDS011;64606;44.062;2.986;2023-12-20T03:46:08;4.25;;;3.47;;
75928;SDS011;64606;44.062;2.986;2023-12-20T03:48:34;4.03;;;3.63;;
75928;SDS011;64606;44.062;2.986;2023-12-20T03:51:00;3.97;;;3.58;;
75928;SDS011;64606;44.062;2.986;2023-12-20T03:53:27;4.13;;;3.67;;
75928;SDS011;64606;44.062;2.986;2023-12-20T03:55:53;3.58;;;3.28;;
75928;SDS011;64606;44.062;2.986;2023-12-20T03:58:19;3.65;;;3.35;;
75928;SDS011;64606;44.062;2.986;2023-12-20T04:00:45;3.67;;;3.38;;
75928;SDS011;64606;44.062;2.986;2023-12-20T04:03:11;4.13;;;3.72;;
75928;SDS011;64606;44.062;2.986;2023-12-20T04:05:40;5.50;;;3.15;;
75928;SDS011;64606;44.062;2.986;2023-12-20T04:08:07;4.78;;;3.67;;
75928;SDS011;64606;44.062;2.986;2023-12-20T04:10:33;4.18;;;3.83;;
75928;SDS011;64606;44.062;2.986;2023-12-20T04:12:59;3.70;;;3.40;;
75928;SDS011;64606;44.062;2.986;2023-12-20T04:15:25;4.03;;;3.60;;
75928;SDS011;64606;44.062;2.986;2023-12-20T04:17:51;3.88;;;3.58;;
75928;SDS011;64606;44.062;2.986;2023-12-20T04:20:17;3.50;;;3.20;;
75928;SDS011;64606;44.062;2.986;2023-12-20T04:22:43;4.25;;;3.60;;
75928;SDS011;64606;44.062;2.986;2023-12-20T04:25:10;3.88;;;3.58;;
75928;SDS011;64606;44.062;2.986;2023-12-20T04:27:36;3.88;;;3.42;;
75928;SDS011;64606;44.062;2.986;2023-12-20T04:30:02;5.15;;;3.78;;
75928;SDS011;64606;44.062;2.986;2023-12-20T04:32:28;4.18;;;3.78;;
75928;SDS011;64606;44.062;2.986;2023-12-20T04:34:55;3.90;;;3.60;;
75928;SDS011;64606;44.062;2.986;2023-12-20T04:37:21;3.92;;;3.63;;
75928;SDS011;64606;44.062;2.986;2023-12-20T04:39:47;4.00;;;3.60;;
75928;SDS011;64606;44.062;2.986;2023-12-20T04:42:13;4.13;;;3.72;;
75928;SDS011;64606;44.062;2.986;2023-12-20T04:44:39;4.03;;;3.63;;
75928;SDS011;64606;44.062;2.986;2023-12-20T04:47:05;3.90;;;3.47;;
75928;SDS011;64606;44.062;2.986;2023-12-20T04:49:32;3.50;;;3.20;;
75928;SDS011;64606;44.062;2.986;2023-12-20T04:51:58;4.60;;;4.00;;
75928;SDS011;64606;44.062;2.986;2023-12-20T04:54:24;4.75;;;3.85;;
75928;SDS011;64606;44.062;2.986;2023-12-20T04:56:50;4.20;;;3.80;;
75928;SDS011;64606;44.062;2.986;2023-12-20T04:59:16;4.93;;;4.28;;
75928;SDS011;64606;44.062;2.986;2023-12-20T05:01:42;4.82;;;4.20;;
75928;SDS011;64606;44.062;2.986;2023-12-20T05:04:08;3.83;;;3.53;;
75928;SDS011;64606;44.062;2.986;2023-12-20T05:06:34;4.25;;;3.85;;
75928;SDS011;64606;44.062;2.986;2023-12-20T05:09:00;4.18;;;3.78;;
75928;SDS011;64606;44.062;2.986;2023-12-20T05:11:27;4.07;;;3.67;;
75928;SDS011;64606;44.062;2.986;2023-12-20T05:13:53;3.60;;;3.30;;
75928;SDS011;64606;44.062;2.986;2023-12-20T05:16:19;4.00;;;3.60;;
75928;SDS011;64606;44.062;2.986;2023-12-20T05:18:46;3.70;;;3.40;;
75928;SDS011;64606;44.062;2.986;2023-12-20T05:21:13;4.88;;;3.53;;
75928;SDS011;64606;44.062;2.986;2023-12-20T05:23:39;3.72;;;3.42;;
75928;SDS011;64606;44.062;2.986;2023-12-20T05:26:05;3.90;;;3.50;;
75928;SDS011;64606;44.062;2.986;2023-12-20T05:28:31;3.97;;;3.42;;
75928;SDS011;64606;44.062;2.986;2023-12-20T05:30:57;3.90;;;3.50;;
75928;SDS011;64606;44.062;2.986;2023-12-20T05:33:23;3.75;;;3.42;;
75928;SDS011;64606;44.062;2.986;2023-12-20T05:35:50;3.70;;;3.40;;
75928;SDS011;64606;44.062;2.986;2023-12-20T05:38:16;4.55;;;3.63;;
75928;SDS011;64606;44.062;2.986;2023-12-20T05:40:42;3.58;;;3.28;;
75928;SDS011;64606;44.062;2.986;2023-12-20T05:43:08;3.17;;;2.88;;
75928;SDS011;64606;44.062;2.986;2023-12-20T05:45:34;4.10;;;3.45;;
75928;SDS011;64606;44.062;2.986;2023-12-20T05:48:00;4.03;;;3.45;;
75928;SDS011;64606;44.062;2.986;2023-12-20T05:50:26;3.58;;;3.22;;
75928;SDS011;64606;44.062;2.986;2023-12-20T05:52:53;3.42;;;2.95;;
75928;SDS011;64606;44.062;2.986;2023-12-20T05:55:19;3.45;;;3.10;;
75928;SDS011;64606;44.062;2.986;2023-12-20T05:57:45;3.83;;;3.00;;
75928;SDS011;64606;44.062;2.986;2023-12-20T06:00:12;3.40;;;3.10;;
75928;SDS011;64606;44.062;2.986;2023-12-20T06:02:38;3.17;;;2.88;;
75928;SDS011;64606;44.062;2.986;2023-12-20T06:05:05;3.15;;;2.85;;
75928;SDS011;64606;44.062;2.986;2023-12-20T06:07:31;3.30;;;3.00;;
75928;SDS011;64606;44.062;2.986;2023-12-20T06:09:57;4.07;;;3.42;;
75928;SDS011;64606;44.062;2.986;2023-12-20T06:12:23;3.72;;;3.10;;
75928;SDS011;64606;44.062;2.986;2023-12-20T06:14:51;3.50;;;3.20;;
75928;SDS011;64606;44.062;2.986;2023-12-20T06:17:17;5.65;;;3.50;;
75928;SDS011;64606;44.062;2.986;2023-12-20T06:19:43;6.55;;;3.83;;
75928;SDS011;64606;44.062;2.986;2023-12-20T06:22:13;6.05;;;3.80;;
75928;SDS011;64606;44.062;2.986;2023-12-20T06:24:39;6.10;;;5.32;;
75928;SDS011;64606;44.062;2.986;2023-12-20T06:27:05;6.05;;;5.40;;
75928;SDS011;64606;44.062;2.986;2023-12-20T06:29:31;7.30;;;5.47;;
75928;SDS011;64606;44.062;2.986;2023-12-20T06:31:57;7.85;;;5.68;;
75928;SDS011;64606;44.062;2.986;2023-12-20T06:34:23;8.00;;;5.72;;
75928;SDS011;64606;44.062;2.986;2023-12-20T06:36:49;9.63;;;6.00;;
75928;SDS011;64606;44.062;2.986;2023-12-20T06:39:16;18.45;;;6.38;;
75928;SDS011;64606;44.062;2.986;2023-12-20T06:41:42;14.93;;;5.90;;
75928;SDS011;64606;44.062;2.986;2023-12-20T06:44:08;14.45;;;5.75;;
75928;SDS011;64606;44.062;2.986;2023-12-20T06:46:34;13.50;;;5.82;;
75928;SDS011;64606;44.062;2.986;2023-12-20T06:49:01;10.60;;;5.60;;
75928;SDS011;64606;44.062;2.986;2023-12-20T06:51:27;6.15;;;5.10;;
75928;SDS011;64606;44.062;2.986;2023-12-20T06:53:53;8.55;;;5.40;;
75928;SDS011;64606;44.062;2.986;2023-12-20T06:56:19;9.65;;;5.60;;
75928;SDS011;64606;44.062;2.986;2023-12-20T06:58:45;8.35;;;5.40;;
75928;SDS011;64606;44.062;2.986;2023-12-20T07:01:12;7.72;;;5.30;;
75928;SDS011;64606;44.062;2.986;2023-12-20T07:03:38;9.55;;;5.25;;
75928;SDS011;64606;44.062;2.986;2023-12-20T07:06:05;6.32;;;5.57;;
75928;SDS011;64606;44.062;2.986;2023-12-20T07:08:31;6.75;;;5.25;;
75928;SDS011;64606;44.062;2.986;2023-12-20T07:10:58;7.95;;;4.95;;
75928;SDS011;64606;44.062;2.986;2023-12-20T07:13:24;6.22;;;5.07;;
75928;SDS011;64606;44.062;2.986;2023-12-20T07:15:50;8.80;;;5.30;;
75928;SDS011;64606;44.062;2.986;2023-12-20T07:18:16;6.82;;;4.40;;
75928;SDS011;64606;44.062;2.986;2023-12-20T07:20:42;8.40;;;4.72;;
75928;SDS011;64606;44.062;2.986;2023-12-20T07:23:08;7.53;;;5.28;;
75928;SDS011;64606;44.062;2.986;2023-12-20T07:25:34;8.35;;;4.53;;
75928;SDS011;64606;44.062;2.986;2023-12-20T07:28:01;6.00;;;4.63;;
75928;SDS011;64606;44.062;2.986;2023-12-20T07:30:27;5.32;;;4.20;;
75928;SDS011;64606;44.062;2.986;2023-12-20T07:32:53;5.60;;;4.10;;
75928;SDS011;64606;44.062;2.986;2023-12-20T07:35:19;4.53;;;4.10;;
75928;SDS011;64606;44.062;2.986;2023-12-20T07:37:45;6.75;;;4.20;;
75928;SDS011;64606;44.062;2.986;2023-12-20T07:40:12;5.30;;;3.63;;
75928;SDS011;64606;44.062;2.986;2023-12-20T07:42:38;5.00;;;3.95;;
75928;SDS011;64606;44.062;2.986;2023-12-20T07:45:04;4.95;;;3.92;;
75928;SDS011;64606;44.062;2.986;2023-12-20T07:47:30;5.07;;;4.13;;
75928;SDS011;64606;44.062;2.986;2023-12-20T07:49:56;4.97;;;4.00;;
75928;SDS011;64606;44.062;2.986;2023-12-20T07:52:23;4.28;;;3.70;;
75928;SDS011;64606;44.062;2.986;2023-12-20T07:54:49;6.90;;;4.13;;
75928;SDS011;64606;44.062;2.986;2023-12-20T07:57:15;8.85;;;4.43;;
75928;SDS011;64606;44.062;2.986;2023-12-20T07:59:41;6.35;;;4.07;;
75928;SDS011;64606;44.062;2.986;2023-12-20T08:02:09;4.18;;;3.70;;
75928;SDS011;64606;44.062;2.986;2023-12-20T08:04:35;4.85;;;3.67;;
75928;SDS011;64606;44.062;2.986;2023-12-20T08:07:01;5.32;;;3.88;;
75928;SDS011;64606;44.062;2.986;2023-12-20T08:09:28;6.72;;;3.95;;
75928;SDS011;64606;44.062;2.986;2023-12-20T08:11:54;6.93;;;3.80;;
75928;SDS011;64606;44.062;2.986;2023-12-20T08:14:20;4.38;;;3.58;;
75928;SDS011;64606;44.062;2.986;2023-12-20T08:16:46;3.97;;;3.45;;
75928;SDS011;64606;44.062;2.986;2023-12-20T08:19:12;4.95;;;3.28;;
75928;SDS011;64606;44.062;2.986;2023-12-20T08:21:38;3.65;;;3.15;;
75928;SDS011;64606;44.062;2.986;2023-12-20T08:24:05;5.55;;;3.40;;
75928;SDS011;64606;44.062;2.986;2023-12-20T08:26:32;4.68;;;3.70;;
75928;SDS011;64606;44.062;2.986;2023-12-20T08:28:58;3.75;;;2.90;;
75928;SDS011;64606;44.062;2.986;2023-12-20T08:31:24;3.58;;;3.17;;
75928;SDS011;64606;44.062;2.986;2023-12-20T08:33:51;4.75;;;3.05;;
75928;SDS011;64606;44.062;2.986;2023-12-20T08:36:19;4.47;;;3.22;;
75928;SDS011;64606;44.062;2.986;2023-12-20T08:38:46;5.28;;;3.30;;
75928;SDS011;64606;44.062;2.986;2023-12-20T08:41:13;3.47;;;3.00;;
75928;SDS011;64606;44.062;2.986;2023-12-20T08:43:39;4.80;;;2.88;;
75928;SDS011;64606;44.062;2.986;2023-12-20T08:46:05;3.83;;;2.90;;
75928;SDS011;64606;44.062;2.986;2023-12-20T08:48:31;3.97;;;2.60;;
75928;SDS011;64606;44.062;2.986;2023-12-20T08:50:57;5.38;;;3.00;;
75928;SDS011;64606;44.062;2.986;2023-12-20T08:53:23;4.15;;;3.00;;
75928;SDS011;64606;44.062;2.986;2023-12-20T08:55:50;5.72;;;3.30;;
75928;SDS011;64606;44.062;2.986;2023-12-20T08:58:16;4.50;;;3.40;;
75928;SDS011;64606;44.062;2.986;2023-12-20T09:00:42;4.30;;;3.45;;
75928;SDS011;64606;44.062;2.986;2023-12-20T09:03:08;5.45;;;3.17;;
75928;SDS011;64606;44.062;2.986;2023-12-20T09:05:35;5.32;;;3.50;;
75928;SDS011;64606;44.062;2.986;2023-12-20T09:08:01;5.97;;;3.40;;
75928;SDS011;64606;44.062;2.986;2023-12-20T09:10:27;4.68;;;3.58;;
75928;SDS011;64606;44.062;2.986;2023-12-20T09:12:53;4.75;;;3.72;;
75928;SDS011;64606;44.062;2.986;2023-12-20T09:15:23;3.90;;;3.33;;
75928;SDS011;64606;44.062;2.986;2023-12-20T09:17:49;4.18;;;3.67;;
75928;SDS011;64606;44.062;2.986;2023-12-20T09:20:16;4.13;;;3.40;;
75928;SDS011;64606;44.062;2.986;2023-12-20T09:22:42;60.97;;;6.60;;
75928;SDS011;64606;44.062;2.986;2023-12-20T09:25:09;91.78;;;7.30;;
75928;SDS011;64606;44.062;2.986;2023-12-20T09:27:36;28.08;;;5.20;;
75928;SDS011;64606;44.062;2.986;2023-12-20T09:30:02;44.25;;;5.40;;
75928;SDS011;64606;44.062;2.986;2023-12-20T09:32:30;20.33;;;5.05;;
75928;SDS011;64606;44.062;2.986;2023-12-20T09:34:56;20.30;;;5.35;;
75928;SDS011;64606;44.062;2.986;2023-12-20T09:37:23;19.67;;;4.88;;
75928;SDS011;64606;44.062;2.986;2023-12-20T09:39:49;55.72;;;7.75;;
75928;SDS011;64606;44.062;2.986;2023-12-20T09:42:16;89.18;;;9.07;;
75928;SDS011;64606;44.062;2.986;2023-12-20T09:44:43;76.57;;;9.57;;
75928;SDS011;64606;44.062;2.986;2023-12-20T09:47:10;93.13;;;9.82;;
75928;SDS011;64606;44.062;2.986;2023-12-20T09:49:36;50.08;;;7.35;;
75928;SDS011;64606;44.062;2.986;2023-12-20T09:52:02;36.30;;;6.50;;
75928;SDS011;64606;44.062;2.986;2023-12-20T09:54:30;34.55;;;6.50;;
75928;SDS011;64606;44.062;2.986;2023-12-20T09:56:56;30.40;;;5.88;;
75928;SDS011;64606;44.062;2.986;2023-12-20T09:59:23;28.25;;;5.80;;
75928;SDS011;64606;44.062;2.986;2023-12-20T10:01:49;25.33;;;5.03;;
75928;SDS011;64606;44.062;2.986;2023-12-20T10:04:16;23.02;;;5.40;;
75928;SDS011;64606;44.062;2.986;2023-12-20T10:06:42;20.65;;;4.80;;
75928;SDS011;64606;44.062;2.986;2023-12-20T10:09:09;15.70;;;4.50;;
75928;SDS011;64606;44.062;2.986;2023-12-20T10:11:36;20.80;;;4.60;;
75928;SDS011;64606;44.062;2.986;2023-12-20T10:14:03;15.05;;;4.35;;
75928;SDS011;64606;44.062;2.986;2023-12-20T10:16:29;16.25;;;3.90;;
75928;SDS011;64606;44.062;2.986;2023-12-20T10:18:56;13.93;;;3.47;;
75928;SDS011;64606;44.062;2.986;2023-12-20T10:21:22;10.18;;;3.97;;
75928;SDS011;64606;44.062;2.986;2023-12-20T10:23:51;13.65;;;3.28;;
75928;SDS011;64606;44.062;2.986;2023-12-20T10:26:24;13.35;;;3.50;;
75928;SDS011;64606;44.062;2.986;2023-12-20T10:28:54;7.53;;;2.95;;
75928;SDS011;64606;44.062;2.986;2023-12-20T10:31:29;10.70;;;3.03;;
75928;SDS011;64606;44.062;2.986;2023-12-20T10:33:56;7.00;;;2.50;;
75928;SDS011;64606;44.062;2.986;2023-12-20T10:36:24;9.50;;;2.45;;
75928;SDS011;64606;44.062;2.986;2023-12-20T10:38:52;7.13;;;2.35;;
75928;SDS011;64606;44.062;2.986;2023-12-20T10:41:28;7.00;;;2.90;;
75928;SDS011;64606;44.062;2.986;2023-12-20T10:44:01;6.85;;;2.67;;
75928;SDS011;64606;44.062;2.986;2023-12-20T10:48:55;7.68;;;2.28;;
75928;SDS011;64606;44.062;2.986;2023-12-20T10:51:21;3.60;;;2.55;;
75928;SDS011;64606;44.062;2.986;2023-12-20T10:53:49;3.88;;;2.03;;
75928;SDS011;64606;44.062;2.986;2023-12-20T10:56:15;7.55;;;2.10;;
75928;SDS011;64606;44.062;2.986;2023-12-20T10:58:43;8.70;;;2.17;;
75928;SDS011;64606;44.062;2.986;2023-12-20T11:01:09;4.72;;;2.10;;
75928;SDS011;64606;44.062;2.986;2023-12-20T11:03:36;3.15;;;1.98;;
75928;SDS011;64606;44.062;2.986;2023-12-20T11:06:05;5.15;;;2.03;;
75928;SDS011;64606;44.062;2.986;2023-12-20T11:08:36;3.63;;;2.13;;
75928;SDS011;64606;44.062;2.986;2023-12-20T11:11:12;3.20;;;1.77;;
75928;SDS011;64606;44.062;2.986;2023-12-20T11:14:00;6.60;;;2.20;;
75928;SDS011;64606;44.062;2.986;2023-12-20T11:16:26;7.93;;;2.72;;
75928;SDS011;64606;44.062;2.986;2023-12-20T11:18:52;8.00;;;3.00;;
75928;SDS011;64606;44.062;2.986;2023-12-20T11:21:19;14.00;;;3.85;;
75928;SDS011;64606;44.062;2.986;2023-12-20T11:23:46;13.25;;;4.63;;
75928;SDS011;64606;44.062;2.986;2023-12-20T11:26:15;13.65;;;5.30;;
75928;SDS011;64606;44.062;2.986;2023-12-20T11:28:42;17.83;;;5.65;;
75928;SDS011;64606;44.062;2.986;2023-12-20T11:31:08;15.10;;;6.70;;
75928;SDS011;64606;44.062;2.986;2023-12-20T11:33:36;19.40;;;6.68;;
75928;SDS011;64606;44.062;2.986;2023-12-20T11:36:03;21.77;;;7.43;;
75928;SDS011;64606;44.062;2.986;2023-12-20T11:38:36;16.08;;;6.78;;
75928;SDS011;64606;44.062;2.986;2023-12-20T11:41:04;19.10;;;7.43;;
75928;SDS011;64606;44.062;2.986;2023-12-20T11:46:02;73.40;;;10.23;;
75928;SDS011;64606;44.062;2.986;2023-12-20T11:48:29;33.58;;;7.97;;
75928;SDS011;64606;44.062;2.986;2023-12-20T11:50:57;61.65;;;9.13;;
75928;SDS011;64606;44.062;2.986;2023-12-20T11:53:23;39.33;;;8.70;;
75928;SDS011;64606;44.062;2.986;2023-12-20T11:55:49;18.52;;;6.68;;
75928;SDS011;64606;44.062;2.986;2023-12-20T11:58:15;23.80;;;7.43;;
75928;SDS011;64606;44.062;2.986;2023-12-20T12:00:42;26.35;;;8.55;;
75928;SDS011;64606;44.062;2.986;2023-12-20T12:03:08;24.80;;;8.82;;
75928;SDS011;64606;44.062;2.986;2023-12-20T12:05:35;26.15;;;8.05;;
75928;SDS011;64606;44.062;2.986;2023-12-20T12:08:02;28.98;;;8.95;;
75928;SDS011;64606;44.062;2.986;2023-12-20T12:10:31;31.25;;;7.63;;
75928;SDS011;64606;44.062;2.986;2023-12-20T12:12:57;30.85;;;7.97;;
75928;SDS011;64606;44.062;2.986;2023-12-20T12:15:23;19.02;;;7.43;;
75928;SDS011;64606;44.062;2.986;2023-12-20T12:17:53;15.43;;;5.47;;
75928;SDS011;64606;44.062;2.986;2023-12-20T12:20:20;17.55;;;6.80;;
75928;SDS011;64606;44.062;2.986;2023-12-20T12:22:50;18.13;;;6.07;;
75928;SDS011;64606;44.062;2.986;2023-12-20T12:25:22;18.02;;;6.90;;
75928;SDS011;64606;44.062;2.986;2023-12-20T12:27:49;15.68;;;5.40;;
75928;SDS011;64606;44.062;2.986;2023-12-20T12:30:16;15.38;;;6.05;;
75928;SDS011;64606;44.062;2.986;2023-12-20T12:32:46;14.85;;;5.30;;
75928;SDS011;64606;44.062;2.986;2023-12-20T12:35:13;17.58;;;5.65;;
75928;SDS011;64606;44.062;2.986;2023-12-20T12:37:40;19.58;;;5.53;;
75928;SDS011;64606;44.062;2.986;2023-12-20T12:42:36;12.27;;;4.80;;
75928;SDS011;64606;44.062;2.986;2023-12-20T12:47:52;10.48;;;4.25;;
75928;SDS011;64606;44.062;2.986;2023-12-20T12:50:20;8.75;;;3.97;;
75928;SDS011;64606;44.062;2.986;2023-12-20T12:52:46;11.38;;;4.82;;
75928;SDS011;64606;44.062;2.986;2023-12-20T12:55:12;9.55;;;3.35;;
75928;SDS011;64606;44.062;2.986;2023-12-20T12:57:38;10.32;;;4.13;;
75928;SDS011;64606;44.062;2.986;2023-12-20T13:00:05;10.13;;;4.10;;
75928;SDS011;64606;44.062;2.986;2023-12-20T13:02:33;8.05;;;3.03;;
75928;SDS011;64606;44.062;2.986;2023-12-20T13:04:59;9.95;;;3.45;;
75928;SDS011;64606;44.062;2.986;2023-12-20T13:07:27;7.40;;;2.95;;
75928;SDS011;64606;44.062;2.986;2023-12-20T13:09:53;5.40;;;2.88;;
75928;SDS011;64606;44.062;2.986;2023-12-20T13:12:19;5.35;;;2.50;;
75928;SDS011;64606;44.062;2.986;2023-12-20T13:14:46;10.25;;;3.30;;
75928;SDS011;64606;44.062;2.986;2023-12-20T13:17:12;5.32;;;2.45;;
75928;SDS011;64606;44.062;2.986;2023-12-20T13:19:38;7.38;;;2.22;;
75928;SDS011;64606;44.062;2.986;2023-12-20T13:22:05;5.22;;;2.80;;
75928;SDS011;64606;44.062;2.986;2023-12-20T13:24:31;9.70;;;2.50;;
75928;SDS011;64606;44.062;2.986;2023-12-20T13:26:57;10.35;;;3.10;;
75928;SDS011;64606;44.062;2.986;2023-12-20T13:29:24;14.38;;;3.13;;
75928;SDS011;64606;44.062;2.986;2023-12-20T13:31:52;15.15;;;2.60;;
75928;SDS011;64606;44.062;2.986;2023-12-20T13:34:18;21.17;;;2.88;;
75928;SDS011;64606;44.062;2.986;2023-12-20T13:36:45;10.93;;;2.47;;
75928;SDS011;64606;44.062;2.986;2023-12-20T13:39:12;8.95;;;2.00;;
75928;SDS011;64606;44.062;2.986;2023-12-20T13:41:38;11.43;;;2.33;;
75928;SDS011;64606;44.062;2.986;2023-12-20T13:44:05;4.47;;;2.08;;
75928;SDS011;64606;44.062;2.986;2023-12-20T13:46:31;9.45;;;2.35;;
75928;SDS011;64606;44.062;2.986;2023-12-20T13:48:57;11.98;;;2.60;;
75928;SDS011;64606;44.062;2.986;2023-12-20T13:51:23;9.60;;;2.20;;
75928;SDS011;64606;44.062;2.986;2023-12-20T13:53:49;11.90;;;2.53;;
75928;SDS011;64606;44.062;2.986;2023-12-20T13:56:15;10.02;;;1.92;;
75928;SDS011;64606;44.062;2.986;2023-12-20T13:58:42;10.93;;;2.00;;
75928;SDS011;64606;44.062;2.986;2023-12-20T14:01:09;11.40;;;2.40;;
75928;SDS011;64606;44.062;2.986;2023-12-20T14:03:36;7.40;;;1.77;;
75928;SDS011;64606;44.062;2.986;2023-12-20T14:06:02;9.07;;;1.98;;
75928;SDS011;64606;44.062;2.986;2023-12-20T14:08:28;5.13;;;1.52;;
75928;SDS011;64606;44.062;2.986;2023-12-20T14:10:55;9.57;;;1.88;;
75928;SDS011;64606;44.062;2.986;2023-12-20T14:13:21;17.60;;;2.42;;
75928;SDS011;64606;44.062;2.986;2023-12-20T14:15:47;12.50;;;2.05;;
75928;SDS011;64606;44.062;2.986;2023-12-20T14:18:14;10.57;;;1.50;;
75928;SDS011;64606;44.062;2.986;2023-12-20T14:20:41;4.55;;;1.50;;
75928;SDS011;64606;44.062;2.986;2023-12-20T14:23:08;7.68;;;1.50;;
75928;SDS011;64606;44.062;2.986;2023-12-20T14:25:39;12.75;;;1.52;;
75928;SDS011;64606;44.062;2.986;2023-12-20T14:28:05;3.08;;;1.40;;
75928;SDS011;64606;44.062;2.986;2023-12-20T14:30:31;2.25;;;1.30;;
75928;SDS011;64606;44.062;2.986;2023-12-20T14:32:58;4.25;;;1.77;;
75928;SDS011;64606;44.062;2.986;2023-12-20T14:35:24;2.45;;;1.13;;
75928;SDS011;64606;44.062;2.986;2023-12-20T14:37:50;2.80;;;1.10;;
75928;SDS011;64606;44.062;2.986;2023-12-20T14:40:17;3.97;;;1.20;;
75928;SDS011;64606;44.062;2.986;2023-12-20T14:42:46;4.68;;;1.50;;
75928;SDS011;64606;44.062;2.986;2023-12-20T14:45:12;3.58;;;1.40;;
75928;SDS011;64606;44.062;2.986;2023-12-20T14:47:39;3.38;;;1.20;;
75928;SDS011;64606;44.062;2.986;2023-12-20T14:50:05;2.80;;;1.60;;
75928;SDS011;64606;44.062;2.986;2023-12-20T14:52:35;2.45;;;1.40;;